sensor_id;sensor_type;location;lat;lon;timestamp;temperature;humidity
2653;DHT22;1336;48.692;9.144;2022-09-04T05:00:49;17.10;97.20
2653;DHT22;1336;48.692;9.144;2022-09-04T05:01:51;17.10;97.20
2653;DHT22;1336;48.692;9.144;2022-09-04T05:02:54;17.10;97.20
2653;DHT22;1336;48.692;9.144;2022-09-04T05:03:58;17.10;97.20
2653;DHT22;1336;48.692;9.144;2022-09-04T05:04:55;17.10;97.20
2653;DHT22;1336;48.692;9.144;2022-09-04T05:05:56;17.10;97.20
2653;DHT22;1336;48.692;9.144;2022-09-04T05:06:53;17.10;97.20
2653;DHT22;1336;48.692;9.144;2022-09-04T05:07:54;17.10;97.20
2653;DHT22;1336;48.692;9.144;2022-09-04T05:08:56;17.10;97.20
2653;DHT22;1336;48.692;9.144;2022-09-04T05:09:56;17.10;97.20
2653;DHT22;1336;48.692;9.144;2022-09-04T05:10:54;17.10;97.20
2653;DHT22;1336;48.692;9.144;2022-09-04T05:11:56;17.10;97.20
2653;DHT22;1336;48.692;9.144;2022-09-04T05:12:57;17.10;97.20
2653;DHT22;1336;48.692;9.144;2022-09-04T05:14:01;17.10;97.20
2653;DHT22;1336;48.692;9.144;2022-09-04T05:14:58;17.10;97.20
2653;DHT22;1336;48.692;9.144;2022-09-04T05:15:59;17.10;97.20
2653;DHT22;1336;48.692;9.144;2022-09-04T05:16:56;17.10;97.20
2653;DHT22;1336;48.692;9.144;2022-09-04T05:17:55;17.10;97.20
2653;DHT22;1336;48.692;9.144;2022-09-04T05:18:51;17.10;97.20
2653;DHT22;1336;48.692;9.144;2022-09-04T05:19:51;17.10;97.20
2653;DHT22;1336;48.692;9.144;2022-09-04T05:20:49;17.10;97.20
2653;DHT22;1336;48.692;9.144;2022-09-04T05:21:48;17.10;97.20
2653;DHT22;1336;48.692;9.144;2022-09-04T05:22:43;17.20;97.20
2653;DHT22;1336;48.692;9.144;2022-09-04T05:23:40;17.20;97.20
2653;DHT22;1336;48.692;9.144;2022-09-04T05:24:36;17.20;97.20
2653;DHT22;1336;48.692;9.144;2022-09-04T05:25:35;17.20;97.20
2653;DHT22;1336;48.692;9.144;2022-09-04T05:26:34;17.20;97.20
2653;DHT22;1336;48.692;9.144;2022-09-04T05:27:47;17.20;97.20
2653;DHT22;1336;48.692;9.144;2022-09-04T05:28:47;17.20;97.20
2653;DHT22;1336;48.692;9.144;2022-09-04T05:29:46;17.20;97.20
2653;DHT22;1336;48.692;9.144;2022-09-04T05:30:46;17.20;97.20
2653;DHT22;1336;48.692;9.144;2022-09-04T05:31:46;17.20;97.20
2653;DHT22;1336;48.692;9.144;2022-09-04T05:32:44;17.20;97.20
2653;DHT22;1336;48.692;9.144;2022-09-04T05:33:50;17.20;97.20
2653;DHT22;1336;48.692;9.144;2022-09-04T05:34:58;17.20;97.20
2653;DHT22;1336;48.692;9.144;2022-09-04T05:35:57;17.20;97.20
2653;DHT22;1336;48.692;9.144;2022-09-04T05:36:58;17.20;97.20
2653;DHT22;1336;48.692;9.144;2022-09-04T05:37:57;17.20;97.20
2653;DHT22;1336;48.692;9.144;2022-09-04T05:38:57;17.20;97.20
2653;DHT22;1336;48.692;9.144;2022-09-04T05:40:00;17.20;97.20
2653;DHT22;1336;48.692;9.144;2022-09-04T05:41:03;17.30;97.20
2653;DHT22;1336;48.692;9.144;2022-09-04T05:43:23;17.30;97.20
2653;DHT22;1336;48.692;9.144;2022-09-04T05:44:33;17.30;97.20
2653;DHT22;1336;48.692;9.144;2022-09-04T05:45:31;17.30;97.20
2653;DHT22;1336;48.692;9.144;2022-09-04T05:46:36;17.30;97.20
2653;DHT22;1336;48.692;9.144;2022-09-04T05:47:39;17.30;97.20
2653;DHT22;1336;48.692;9.144;2022-09-04T05:48:40;17.30;97.20
2653;DHT22;1336;48.692;9.144;2022-09-04T05:49:45;17.40;97.20
2653;DHT22;1336;48.692;9.144;2022-09-04T05:50:48;17.40;97.20
2653;DHT22;1336;48.692;9.144;2022-09-04T05:51:59;17.40;97.20
2653;DHT22;1336;48.692;9.144;2022-09-04T05:53:26;17.40;97.20
2653;DHT22;1336;48.692;9.144;2022-09-04T05:54:36;17.40;97.20
2653;DHT22;1336;48.692;9.144;2022-09-04T05:57:19;17.50;97.20
2653;DHT22;1336;48.692;9.144;2022-09-04T05:58:30;17.50;97.20
2653;DHT22;1336;48.692;9.144;2022-09-04T06:00:55;17.50;97.20
2653;DHT22;1336;48.692;9.144;2022-09-04T06:02:01;17.60;97.20
2653;DHT22;1336;48.692;9.144;2022-09-04T06:04:44;17.60;97.20
2653;DHT22;1336;48.692;9.144;2022-09-04T06:06:01;17.60;97.20
2653;DHT22;1336;48.692;9.144;2022-09-04T06:06:57;17.60;97.20
2653;DHT22;1336;48.692;9.144;2022-09-04T06:08:00;17.70;97.20
2653;DHT22;1336;48.692;9.144;2022-09-04T06:09:15;17.70;97.20
2653;DHT22;1336;48.692;9.144;2022-09-04T06:10:16;17.70;97.20
2653;DHT22;1336;48.692;9.144;2022-09-04T06:11:35;17.70;97.20
2653;DHT22;1336;48.692;9.144;2022-09-04T06:12:55;17.70;97.20
2653;DHT22;1336;48.692;9.144;2022-09-04T06:14:00;17.70;97.20
2653;DHT22;1336;48.692;9.144;2022-09-04T06:15:19;17.70;97.20
2653;DHT22;1336;48.692;9.144;2022-09-04T06:16:34;17.70;97.20
2653;DHT22;1336;48.692;9.144;2022-09-04T06:19:04;17.80;97.20
2653;DHT22;1336;48.692;9.144;2022-09-04T06:20:18;17.80;97.20
2653;DHT22;1336;48.692;9.144;2022-09-04T06:21:49;17.80;97.20
2653;DHT22;1336;48.692;9.144;2022-09-04T06:24:34;17.90;97.20
2653;DHT22;1336;48.692;9.144;2022-09-04T06:25:56;17.90;97.20
2653;DHT22;1336;48.692;9.144;2022-09-04T06:27:21;18.00;97.20
2653;DHT22;1336;48.692;9.144;2022-09-04T06:28:33;18.00;97.20
2653;DHT22;1336;48.692;9.144;2022-09-04T06:29:46;18.00;97.20
2653;DHT22;1336;48.692;9.144;2022-09-04T06:30:47;18.00;97.20
2653;DHT22;1336;48.692;9.144;2022-09-04T06:32:17;18.00;97.20
2653;DHT22;1336;48.692;9.144;2022-09-04T06:33:19;18.10;97.20
2653;DHT22;1336;48.692;9.144;2022-09-04T06:34:20;18.10;97.20
2653;DHT22;1336;48.692;9.144;2022-09-04T06:35:27;18.10;97.20
2653;DHT22;1336;48.692;9.144;2022-09-04T06:36:37;18.10;97.20
2653;DHT22;1336;48.692;9.144;2022-09-04T06:37:35;18.10;97.20
2653;DHT22;1336;48.692;9.144;2022-09-04T06:38:40;18.20;97.20
2653;DHT22;1336;48.692;9.144;2022-09-04T06:39:44;18.20;97.20
2653;DHT22;1336;48.692;9.144;2022-09-04T06:40:48;18.20;97.20
2653;DHT22;1336;48.692;9.144;2022-09-04T06:41:55;18.20;97.20
2653;DHT22;1336;48.692;9.144;2022-09-04T06:43:01;18.30;97.20
2653;DHT22;1336;48.692;9.144;2022-09-04T06:44:03;18.30;97.20
2653;DHT22;1336;48.692;9.144;2022-09-04T06:45:07;18.40;97.20
2653;DHT22;1336;48.692;9.144;2022-09-04T06:46:08;18.40;97.20
2653;DHT22;1336;48.692;9.144;2022-09-04T06:47:13;18.40;97.20
2653;DHT22;1336;48.692;9.144;2022-09-04T06:48:16;18.50;97.20
2653;DHT22;1336;48.692;9.144;2022-09-04T06:49:12;18.50;97.20
2653;DHT22;1336;48.692;9.144;2022-09-04T06:50:19;18.60;97.20
2653;DHT22;1336;48.692;9.144;2022-09-04T06:51:21;18.60;97.20
2653;DHT22;1336;48.692;9.144;2022-09-04T06:52:23;18.70;97.20
2653;DHT22;1336;48.692;9.144;2022-09-04T06:53:22;18.70;97.20
2653;DHT22;1336;48.692;9.144;2022-09-04T06:54:29;18.80;97.20
2653;DHT22;1336;48.692;9.144;2022-09-04T06:55:29;18.80;97.20
2653;DHT22;1336;48.692;9.144;2022-09-04T06:57:50;18.90;97.20
2653;DHT22;1336;48.692;9.144;2022-09-04T06:59:16;18.90;97.20
2653;DHT22;1336;48.692;9.144;2022-09-04T07:00:14;19.00;97.20
2653;DHT22;1336;48.692;9.144;2022-09-04T07:01:07;19.00;97.20
2653;DHT22;1336;48.692;9.144;2022-09-04T07:02:11;19.00;97.20
2653;DHT22;1336;48.692;9.144;2022-09-04T07:03:12;19.10;97.20
2653;DHT22;1336;48.692;9.144;2022-09-04T07:04:16;19.10;97.20
2653;DHT22;1336;48.692;9.144;2022-09-04T07:05:17;19.10;97.20
2653;DHT22;1336;48.692;9.144;2022-09-04T07:06:14;19.20;97.20
2653;DHT22;1336;48.692;9.144;2022-09-04T07:07:13;19.20;97.20
2653;DHT22;1336;48.692;9.144;2022-09-04T07:08:14;19.20;97.20
2653;DHT22;1336;48.692;9.144;2022-09-04T07:09:14;19.20;97.20
2653;DHT22;1336;48.692;9.144;2022-09-04T07:10:09;19.20;97.20
2653;DHT22;1336;48.692;9.144;2022-09-04T07:11:13;19.20;97.20
2653;DHT22;1336;48.692;9.144;2022-09-04T07:13:56;19.30;97.20
2653;DHT22;1336;48.692;9.144;2022-09-04T07:15:16;19.30;97.20
2653;DHT22;1336;48.692;9.144;2022-09-04T07:16:24;19.40;97.20
2653;DHT22;1336;48.692;9.144;2022-09-04T07:17:20;19.40;97.20
2653;DHT22;1336;48.692;9.144;2022-09-04T07:20:00;19.40;97.20
2653;DHT22;1336;48.692;9.144;2022-09-04T07:21:02;19.50;97.20
2653;DHT22;1336;48.692;9.144;2022-09-04T07:22:06;19.50;97.20
2653;DHT22;1336;48.692;9.144;2022-09-04T07:23:20;19.50;97.20
2653;DHT22;1336;48.692;9.144;2022-09-04T07:24:33;19.60;97.20
2653;DHT22;1336;48.692;9.144;2022-09-04T07:25:38;19.60;97.20
2653;DHT22;1336;48.692;9.144;2022-09-04T07:26:35;19.70;97.20
2653;DHT22;1336;48.692;9.144;2022-09-04T07:27:37;19.70;97.20
2653;DHT22;1336;48.692;9.144;2022-09-04T07:28:40;19.70;97.20
2653;DHT22;1336;48.692;9.144;2022-09-04T07:29:40;19.80;97.20
2653;DHT22;1336;48.692;9.144;2022-09-04T07:30:41;19.80;97.20
2653;DHT22;1336;48.692;9.144;2022-09-04T07:31:38;19.90;97.20
2653;DHT22;1336;48.692;9.144;2022-09-04T07:32:36;19.90;97.20
2653;DHT22;1336;48.692;9.144;2022-09-04T07:33:36;20.00;97.20
2653;DHT22;1336;48.692;9.144;2022-09-04T07:34:36;20.00;97.20
2653;DHT22;1336;48.692;9.144;2022-09-04T07:35:33;20.10;97.20
2653;DHT22;1336;48.692;9.144;2022-09-04T07:36:31;20.10;97.20
2653;DHT22;1336;48.692;9.144;2022-09-04T07:37:30;20.20;97.20
2653;DHT22;1336;48.692;9.144;2022-09-04T07:38:31;20.20;97.20
2653;DHT22;1336;48.692;9.144;2022-09-04T07:39:32;20.30;97.20
2653;DHT22;1336;48.692;9.144;2022-09-04T07:40:31;20.30;97.20
2653;DHT22;1336;48.692;9.144;2022-09-04T07:41:29;20.30;97.20
2653;DHT22;1336;48.692;9.144;2022-09-04T07:42:27;20.40;97.20
2653;DHT22;1336;48.692;9.144;2022-09-04T07:43:26;20.40;97.20
2653;DHT22;1336;48.692;9.144;2022-09-04T07:44:24;20.40;97.20
2653;DHT22;1336;48.692;9.144;2022-09-04T07:45:27;20.50;97.20
2653;DHT22;1336;48.692;9.144;2022-09-04T07:46:26;20.50;97.20
2653;DHT22;1336;48.692;9.144;2022-09-04T07:47:29;20.60;97.20
2653;DHT22;1336;48.692;9.144;2022-09-04T07:48:25;20.60;97.20
2653;DHT22;1336;48.692;9.144;2022-09-04T07:49:26;20.70;97.20
2653;DHT22;1336;48.692;9.144;2022-09-04T07:50:22;20.70;97.20
2653;DHT22;1336;48.692;9.144;2022-09-04T07:51:16;20.70;97.20
2653;DHT22;1336;48.692;9.144;2022-09-04T07:52:14;20.80;97.20
2653;DHT22;1336;48.692;9.144;2022-09-04T07:53:23;20.80;97.20
2653;DHT22;1336;48.692;9.144;2022-09-04T07:54:33;20.90;97.20
2653;DHT22;1336;48.692;9.144;2022-09-04T07:55:35;20.90;97.20
2653;DHT22;1336;48.692;9.144;2022-09-04T07:56:35;20.90;97.20
2653;DHT22;1336;48.692;9.144;2022-09-04T07:59:20;21.00;97.20
2653;DHT22;1336;48.692;9.144;2022-09-04T08:00:16;21.00;97.20
2653;DHT22;1336;48.692;9.144;2022-09-04T08:01:27;21.00;97.20
2653;DHT22;1336;48.692;9.144;2022-09-04T08:02:29;21.00;97.20
2653;DHT22;1336;48.692;9.144;2022-09-04T08:03:36;21.00;97.20
2653;DHT22;1336;48.692;9.144;2022-09-04T08:04:51;21.00;97.20
2653;DHT22;1336;48.692;9.144;2022-09-04T08:05:49;21.00;97.20
2653;DHT22;1336;48.692;9.144;2022-09-04T08:06:48;21.00;97.20
2653;DHT22;1336;48.692;9.144;2022-09-04T08:09:20;21.10;97.20
2653;DHT22;1336;48.692;9.144;2022-09-04T08:10:23;21.10;97.20
2653;DHT22;1336;48.692;9.144;2022-09-04T08:11:47;21.10;97.20
2653;DHT22;1336;48.692;9.144;2022-09-04T08:13:00;21.10;97.20
2653;DHT22;1336;48.692;9.144;2022-09-04T08:14:12;21.20;97.20
2653;DHT22;1336;48.692;9.144;2022-09-04T08:15:14;21.20;97.20
2653;DHT22;1336;48.692;9.144;2022-09-04T08:16:14;21.20;97.20
2653;DHT22;1336;48.692;9.144;2022-09-04T08:17:42;21.20;97.20
2653;DHT22;1336;48.692;9.144;2022-09-04T08:18:50;21.20;97.20
2653;DHT22;1336;48.692;9.144;2022-09-04T08:19:47;21.20;97.20
2653;DHT22;1336;48.692;9.144;2022-09-04T08:20:44;21.30;97.20
2653;DHT22;1336;48.692;9.144;2022-09-04T08:21:38;21.30;97.20
2653;DHT22;1336;48.692;9.144;2022-09-04T08:22:37;21.40;97.20
2653;DHT22;1336;48.692;9.144;2022-09-04T08:24:12;21.40;97.20
2653;DHT22;1336;48.692;9.144;2022-09-04T08:25:19;21.50;97.20
2653;DHT22;1336;48.692;9.144;2022-09-04T08:26:18;21.60;97.20
2653;DHT22;1336;48.692;9.144;2022-09-04T08:27:24;21.60;97.20
2653;DHT22;1336;48.692;9.144;2022-09-04T08:28:29;21.70;97.20
2653;DHT22;1336;48.692;9.144;2022-09-04T08:29:46;21.80;97.20
2653;DHT22;1336;48.692;9.144;2022-09-04T08:30:45;21.80;97.20
2653;DHT22;1336;48.692;9.144;2022-09-04T08:31:42;21.80;97.20
2653;DHT22;1336;48.692;9.144;2022-09-04T08:33:06;21.90;97.20
2653;DHT22;1336;48.692;9.144;2022-09-04T08:35:32;22.00;97.20
2653;DHT22;1336;48.692;9.144;2022-09-04T08:36:29;22.00;97.20
2653;DHT22;1336;48.692;9.144;2022-09-04T08:37:25;22.00;97.20
2653;DHT22;1336;48.692;9.144;2022-09-04T08:38:29;22.00;97.20
2653;DHT22;1336;48.692;9.144;2022-09-04T08:39:31;22.00;97.20
2653;DHT22;1336;48.692;9.144;2022-09-04T08:42:37;22.10;97.20
2653;DHT22;1336;48.692;9.144;2022-09-04T08:43:56;22.20;97.20
2653;DHT22;1336;48.692;9.144;2022-09-04T08:46:42;22.20;97.20
2653;DHT22;1336;48.692;9.144;2022-09-04T08:51:01;22.20;97.20
2653;DHT22;1336;48.692;9.144;2022-09-04T08:52:12;22.20;97.20
2653;DHT22;1336;48.692;9.144;2022-09-04T08:53:34;22.20;97.20
2653;DHT22;1336;48.692;9.144;2022-09-04T08:54:54;22.20;97.20
2653;DHT22;1336;48.692;9.144;2022-09-04T08:55:56;22.20;97.20
2653;DHT22;1336;48.692;9.144;2022-09-04T08:57:07;22.20;97.20
2653;DHT22;1336;48.692;9.144;2022-09-04T08:58:41;22.20;97.20
2653;DHT22;1336;48.692;9.144;2022-09-04T09:00:04;22.30;97.20
2653;DHT22;1336;48.692;9.144;2022-09-04T09:01:26;22.40;97.20
2653;DHT22;1336;48.692;9.144;2022-09-04T09:02:44;22.50;97.20
2653;DHT22;1336;48.692;9.144;2022-09-04T09:04:01;22.50;97.20
2653;DHT22;1336;48.692;9.144;2022-09-04T09:05:22;22.60;97.20
2653;DHT22;1336;48.692;9.144;2022-09-04T09:06:44;22.80;97.20
2653;DHT22;1336;48.692;9.144;2022-09-04T09:08:04;22.90;97.20
2653;DHT22;1336;48.692;9.144;2022-09-04T09:09:29;23.10;97.20
2653;DHT22;1336;48.692;9.144;2022-09-04T09:10:59;23.20;97.20
2653;DHT22;1336;48.692;9.144;2022-09-04T09:13:44;23.50;97.20
2653;DHT22;1336;48.692;9.144;2022-09-04T09:16:21;23.80;97.20
2653;DHT22;1336;48.692;9.144;2022-09-04T09:17:13;23.90;97.20
2653;DHT22;1336;48.692;9.144;2022-09-04T09:18:22;23.90;97.20
2653;DHT22;1336;48.692;9.144;2022-09-04T09:19:24;24.00;97.20
2653;DHT22;1336;48.692;9.144;2022-09-04T09:20:27;24.00;97.20
2653;DHT22;1336;48.692;9.144;2022-09-04T09:21:27;24.00;97.20
2653;DHT22;1336;48.692;9.144;2022-09-04T09:22:37;24.00;97.20
2653;DHT22;1336;48.692;9.144;2022-09-04T09:23:37;24.10;97.20
2653;DHT22;1336;48.692;9.144;2022-09-04T09:24:58;24.10;97.20
2653;DHT22;1336;48.692;9.144;2022-09-04T09:26:03;24.20;97.20
2653;DHT22;1336;48.692;9.144;2022-09-04T09:27:11;24.30;97.20
2653;DHT22;1336;48.692;9.144;2022-09-04T09:28:25;24.30;97.20
2653;DHT22;1336;48.692;9.144;2022-09-04T09:29:37;24.40;97.20
2653;DHT22;1336;48.692;9.144;2022-09-04T09:30:43;24.50;97.20
2653;DHT22;1336;48.692;9.144;2022-09-04T09:32:27;24.60;97.20
2653;DHT22;1336;48.692;9.144;2022-09-04T09:33:46;24.70;97.20
2653;DHT22;1336;48.692;9.144;2022-09-04T09:36:31;24.90;97.20
2653;DHT22;1336;48.692;9.144;2022-09-04T09:37:56;24.90;97.20
2653;DHT22;1336;48.692;9.144;2022-09-04T09:40:37;25.00;97.20
2653;DHT22;1336;48.692;9.144;2022-09-04T09:43:23;25.10;97.20
2653;DHT22;1336;48.692;9.144;2022-09-04T09:44:53;25.20;97.20
2653;DHT22;1336;48.692;9.144;2022-09-04T09:46:06;25.30;97.20
2653;DHT22;1336;48.692;9.144;2022-09-04T09:47:41;25.40;97.20
2653;DHT22;1336;48.692;9.144;2022-09-04T09:50:12;25.60;97.20
2653;DHT22;1336;48.692;9.144;2022-09-04T09:51:41;25.70;97.20
2653;DHT22;1336;48.692;9.144;2022-09-04T09:53:09;25.70;97.20
2653;DHT22;1336;48.692;9.144;2022-09-04T09:54:48;25.70;97.20
2653;DHT22;1336;48.692;9.144;2022-09-04T09:56:01;25.80;97.20
2653;DHT22;1336;48.692;9.144;2022-09-04T09:57:21;25.70;97.20
2653;DHT22;1336;48.692;9.144;2022-09-04T10:00:03;25.60;97.20
2653;DHT22;1336;48.692;9.144;2022-09-04T10:01:04;25.50;97.20
2653;DHT22;1336;48.692;9.144;2022-09-04T10:02:30;25.50;97.20
2653;DHT22;1336;48.692;9.144;2022-09-04T10:04:02;25.40;97.20
2653;DHT22;1336;48.692;9.144;2022-09-04T10:05:30;25.30;97.20
2653;DHT22;1336;48.692;9.144;2022-09-04T10:08:15;25.20;97.20
2653;DHT22;1336;48.692;9.144;2022-09-04T10:09:40;25.20;97.20
2653;DHT22;1336;48.692;9.144;2022-09-04T10:12:43;25.40;97.20
2653;DHT22;1336;48.692;9.144;2022-09-04T10:15:40;25.60;97.20
2653;DHT22;1336;48.692;9.144;2022-09-04T10:17:20;25.70;97.20
2653;DHT22;1336;48.692;9.144;2022-09-04T10:21:25;26.00;97.20
2653;DHT22;1336;48.692;9.144;2022-09-04T10:24:15;26.10;97.20
2653;DHT22;1336;48.692;9.144;2022-09-04T10:25:36;26.20;97.20
2653;DHT22;1336;48.692;9.144;2022-09-04T10:28:48;26.40;97.20
2653;DHT22;1336;48.692;9.144;2022-09-04T10:29:57;26.50;97.20
2653;DHT22;1336;48.692;9.144;2022-09-04T10:31:11;26.60;97.20
2653;DHT22;1336;48.692;9.144;2022-09-04T10:32:35;26.60;97.20
2653;DHT22;1336;48.692;9.144;2022-09-04T10:33:32;26.60;97.20
2653;DHT22;1336;48.692;9.144;2022-09-04T10:34:50;26.60;97.20
2653;DHT22;1336;48.692;9.144;2022-09-04T10:35:56;26.60;97.20
2653;DHT22;1336;48.692;9.144;2022-09-04T10:37:00;26.50;97.20
2653;DHT22;1336;48.692;9.144;2022-09-04T10:38:11;26.50;97.20
2653;DHT22;1336;48.692;9.144;2022-09-04T10:39:18;26.50;97.20
2653;DHT22;1336;48.692;9.144;2022-09-04T10:40:38;26.40;97.20
2653;DHT22;1336;48.692;9.144;2022-09-04T10:41:50;26.40;97.20
2653;DHT22;1336;48.692;9.144;2022-09-04T10:42:58;26.40;97.20
2653;DHT22;1336;48.692;9.144;2022-09-04T10:44:39;26.30;97.20
2653;DHT22;1336;48.692;9.144;2022-09-04T10:45:34;26.20;97.20
2653;DHT22;1336;48.692;9.144;2022-09-04T10:46:33;26.20;97.20
2653;DHT22;1336;48.692;9.144;2022-09-04T10:48:07;26.10;97.20
2653;DHT22;1336;48.692;9.144;2022-09-04T10:49:22;26.10;97.20
2653;DHT22;1336;48.692;9.144;2022-09-04T10:50:25;26.00;97.20
2653;DHT22;1336;48.692;9.144;2022-09-04T10:51:30;25.90;97.20
2653;DHT22;1336;48.692;9.144;2022-09-04T10:55:35;26.00;97.20
2653;DHT22;1336;48.692;9.144;2022-09-04T10:56:36;26.10;97.20
2653;DHT22;1336;48.692;9.144;2022-09-04T10:57:44;26.10;97.20
2653;DHT22;1336;48.692;9.144;2022-09-04T10:59:03;26.10;97.20
2653;DHT22;1336;48.692;9.144;2022-09-04T11:00:04;26.00;97.20
2653;DHT22;1336;48.692;9.144;2022-09-04T11:02:51;26.10;97.20
2653;DHT22;1336;48.692;9.144;2022-09-04T11:04:07;26.10;97.20
2653;DHT22;1336;48.692;9.144;2022-09-04T11:05:23;26.20;97.20
2653;DHT22;1336;48.692;9.144;2022-09-04T11:06:35;26.20;97.20
2653;DHT22;1336;48.692;9.144;2022-09-04T11:07:45;26.20;97.20
2653;DHT22;1336;48.692;9.144;2022-09-04T11:08:59;26.10;97.20
2653;DHT22;1336;48.692;9.144;2022-09-04T11:10:13;26.20;97.20
2653;DHT22;1336;48.692;9.144;2022-09-04T11:11:30;26.20;97.20
2653;DHT22;1336;48.692;9.144;2022-09-04T11:12:38;26.20;97.20
2653;DHT22;1336;48.692;9.144;2022-09-04T11:14:00;26.10;97.20
2653;DHT22;1336;48.692;9.144;2022-09-04T11:15:29;26.10;97.20
2653;DHT22;1336;48.692;9.144;2022-09-04T11:16:51;26.00;97.20
2653;DHT22;1336;48.692;9.144;2022-09-04T11:18:03;25.90;97.20
2653;DHT22;1336;48.692;9.144;2022-09-04T11:20:48;25.80;97.20
2653;DHT22;1336;48.692;9.144;2022-09-04T11:23:34;25.70;97.20
2653;DHT22;1336;48.692;9.144;2022-09-04T11:25:03;25.70;97.20
2653;DHT22;1336;48.692;9.144;2022-09-04T11:29:31;25.60;97.20
2653;DHT22;1336;48.692;9.144;2022-09-04T11:30:39;25.50;97.20
2653;DHT22;1336;48.692;9.144;2022-09-04T11:31:51;25.40;97.20
2653;DHT22;1336;48.692;9.144;2022-09-04T11:33:01;25.40;97.20
2653;DHT22;1336;48.692;9.144;2022-09-04T11:34:31;25.30;97.20
2653;DHT22;1336;48.692;9.144;2022-09-04T11:35:50;25.40;97.20
2653;DHT22;1336;48.692;9.144;2022-09-04T11:37:06;25.40;97.20
2653;DHT22;1336;48.692;9.144;2022-09-04T11:38:13;25.50;97.20
2653;DHT22;1336;48.692;9.144;2022-09-04T11:42:23;25.80;97.20
2653;DHT22;1336;48.692;9.144;2022-09-04T11:43:51;25.90;97.20
2653;DHT22;1336;48.692;9.144;2022-09-04T11:46:41;26.00;97.20
2653;DHT22;1336;48.692;9.144;2022-09-04T11:48:01;26.00;97.20
2653;DHT22;1336;48.692;9.144;2022-09-04T11:49:32;25.90;97.20
2653;DHT22;1336;48.692;9.144;2022-09-04T11:52:21;25.70;97.20
2653;DHT22;1336;48.692;9.144;2022-09-04T11:53:31;25.60;97.20
2653;DHT22;1336;48.692;9.144;2022-09-04T11:55:08;25.50;97.20
2653;DHT22;1336;48.692;9.144;2022-09-04T11:56:30;25.50;97.20
2653;DHT22;1336;48.692;9.144;2022-09-04T11:57:29;25.40;97.20
2653;DHT22;1336;48.692;9.144;2022-09-04T11:58:57;25.30;97.20
2653;DHT22;1336;48.692;9.144;2022-09-04T12:00:06;25.20;97.20
2653;DHT22;1336;48.692;9.144;2022-09-04T12:01:09;25.20;97.20
2653;DHT22;1336;48.692;9.144;2022-09-04T12:03:48;25.10;97.20
2653;DHT22;1336;48.692;9.144;2022-09-04T12:05:01;25.10;97.20
2653;DHT22;1336;48.692;9.144;2022-09-04T12:06:05;25.00;97.20
2653;DHT22;1336;48.692;9.144;2022-09-04T12:07:06;25.00;97.20
2653;DHT22;1336;48.692;9.144;2022-09-04T12:08:18;25.00;97.20
2653;DHT22;1336;48.692;9.144;2022-09-04T12:09:38;25.00;97.20
2653;DHT22;1336;48.692;9.144;2022-09-04T12:10:59;25.10;97.20
2653;DHT22;1336;48.692;9.144;2022-09-04T12:13:43;25.20;97.20
2653;DHT22;1336;48.692;9.144;2022-09-04T12:14:56;25.30;97.20
2653;DHT22;1336;48.692;9.144;2022-09-04T12:16:15;25.40;97.20
2653;DHT22;1336;48.692;9.144;2022-09-04T12:17:42;25.40;97.20
2653;DHT22;1336;48.692;9.144;2022-09-04T12:20:41;25.40;97.20
2653;DHT22;1336;48.692;9.144;2022-09-04T12:24:59;25.40;97.20
2653;DHT22;1336;48.692;9.144;2022-09-04T12:26:09;25.40;97.20
2653;DHT22;1336;48.692;9.144;2022-09-04T12:27:30;25.40;97.20
2653;DHT22;1336;48.692;9.144;2022-09-04T12:30:07;25.50;97.20
2653;DHT22;1336;48.692;9.144;2022-09-04T12:31:19;25.50;97.20
2653;DHT22;1336;48.692;9.144;2022-09-04T12:32:25;25.60;97.20
2653;DHT22;1336;48.692;9.144;2022-09-04T12:33:51;25.60;97.20
2653;DHT22;1336;48.692;9.144;2022-09-04T12:36:49;25.80;97.20
2653;DHT22;1336;48.692;9.144;2022-09-04T12:40:38;26.00;97.20
2653;DHT22;1336;48.692;9.144;2022-09-04T12:41:35;26.10;97.20
2653;DHT22;1336;48.692;9.144;2022-09-04T12:42:32;26.10;97.20
2653;DHT22;1336;48.692;9.144;2022-09-04T12:43:37;26.10;97.20
2653;DHT22;1336;48.692;9.144;2022-09-04T12:44:40;26.20;97.20
2653;DHT22;1336;48.692;9.144;2022-09-04T12:45:40;26.20;97.20
2653;DHT22;1336;48.692;9.144;2022-09-04T12:46:50;26.20;97.20
2653;DHT22;1336;48.692;9.144;2022-09-04T12:47:52;26.30;97.20
2653;DHT22;1336;48.692;9.144;2022-09-04T12:48:58;26.30;97.20
2653;DHT22;1336;48.692;9.144;2022-09-04T12:50:14;26.30;97.20
2653;DHT22;1336;48.692;9.144;2022-09-04T12:51:11;26.40;97.20
2653;DHT22;1336;48.692;9.144;2022-09-04T12:52:12;26.40;97.20
2653;DHT22;1336;48.692;9.144;2022-09-04T12:53:45;26.40;97.20
2653;DHT22;1336;48.692;9.144;2022-09-04T12:54:42;26.50;97.20
2653;DHT22;1336;48.692;9.144;2022-09-04T12:55:46;26.50;97.20
2653;DHT22;1336;48.692;9.144;2022-09-04T12:56:44;26.50;97.20
2653;DHT22;1336;48.692;9.144;2022-09-04T12:57:45;26.50;97.20
2653;DHT22;1336;48.692;9.144;2022-09-04T12:59:00;26.50;97.20
2653;DHT22;1336;48.692;9.144;2022-09-04T13:00:02;26.50;97.20
2653;DHT22;1336;48.692;9.144;2022-09-04T13:01:03;26.60;97.20
2653;DHT22;1336;48.692;9.144;2022-09-04T13:02:02;26.60;97.20
2653;DHT22;1336;48.692;9.144;2022-09-04T13:03:03;26.60;97.20
2653;DHT22;1336;48.692;9.144;2022-09-04T13:04:01;26.60;97.20
2653;DHT22;1336;48.692;9.144;2022-09-04T13:05:05;26.70;97.20
2653;DHT22;1336;48.692;9.144;2022-09-04T13:06:08;26.70;97.20
2653;DHT22;1336;48.692;9.144;2022-09-04T13:07:19;26.70;97.20
2653;DHT22;1336;48.692;9.144;2022-09-04T13:08:23;26.70;97.20
2653;DHT22;1336;48.692;9.144;2022-09-04T13:09:23;26.70;97.20
2653;DHT22;1336;48.692;9.144;2022-09-04T13:10:23;26.70;97.20
2653;DHT22;1336;48.692;9.144;2022-09-04T13:11:28;26.70;97.20
2653;DHT22;1336;48.692;9.144;2022-09-04T13:12:27;26.80;97.20
2653;DHT22;1336;48.692;9.144;2022-09-04T13:13:29;26.80;97.20
2653;DHT22;1336;48.692;9.144;2022-09-04T13:14:46;26.80;97.20
2653;DHT22;1336;48.692;9.144;2022-09-04T13:15:50;26.80;97.20
2653;DHT22;1336;48.692;9.144;2022-09-04T13:16:53;26.90;97.20
2653;DHT22;1336;48.692;9.144;2022-09-04T13:17:52;26.90;97.20
2653;DHT22;1336;48.692;9.144;2022-09-04T13:18:59;26.90;97.20
2653;DHT22;1336;48.692;9.144;2022-09-04T13:20:02;26.90;97.20
2653;DHT22;1336;48.692;9.144;2022-09-04T13:21:07;27.00;97.20
2653;DHT22;1336;48.692;9.144;2022-09-04T13:22:11;27.00;97.20
2653;DHT22;1336;48.692;9.144;2022-09-04T13:23:18;27.10;97.20
2653;DHT22;1336;48.692;9.144;2022-09-04T13:24:24;27.10;97.20
2653;DHT22;1336;48.692;9.144;2022-09-04T13:25:31;27.10;97.20
2653;DHT22;1336;48.692;9.144;2022-09-04T13:26:36;27.00;97.20
2653;DHT22;1336;48.692;9.144;2022-09-04T13:27:41;27.00;97.20
2653;DHT22;1336;48.692;9.144;2022-09-04T13:28:46;26.90;97.20
2653;DHT22;1336;48.692;9.144;2022-09-04T13:29:52;26.90;97.20
2653;DHT22;1336;48.692;9.144;2022-09-04T13:30:52;26.80;97.20
2653;DHT22;1336;48.692;9.144;2022-09-04T13:31:58;26.80;97.20
2653;DHT22;1336;48.692;9.144;2022-09-04T13:33:02;26.70;97.20
2653;DHT22;1336;48.692;9.144;2022-09-04T13:34:04;26.70;97.20
2653;DHT22;1336;48.692;9.144;2022-09-04T13:35:09;26.60;97.20
2653;DHT22;1336;48.692;9.144;2022-09-04T13:36:10;26.60;97.20
2653;DHT22;1336;48.692;9.144;2022-09-04T13:37:11;26.50;97.20
2653;DHT22;1336;48.692;9.144;2022-09-04T13:38:26;26.50;97.20
2653;DHT22;1336;48.692;9.144;2022-09-04T13:39:38;26.50;97.20
2653;DHT22;1336;48.692;9.144;2022-09-04T13:40:55;26.40;97.20
2653;DHT22;1336;48.692;9.144;2022-09-04T13:42:23;26.40;97.20
2653;DHT22;1336;48.692;9.144;2022-09-04T13:44:57;26.40;97.20